sensor_id;sensor_type;location;lat;lon;timestamp;P1;durP1;ratioP1;P2;durP2;ratioP2
19609;SDS011;9952;47.122;-1.638;2024-01-25T00:02:17;8.60;;;2.03;;
19609;SDS011;9952;47.122;-1.638;2024-01-25T00:06:57;9.37;;;1.57;;
19609;SDS011;9952;47.122;-1.638;2024-01-25T00:11:38;6.43;;;1.77;;
19609;SDS011;9952;47.122;-1.638;2024-01-25T00:16:19;7.73;;;1.80;;
19609;SDS011;9952;47.122;-1.638;2024-01-25T00:20:59;9.20;;;1.90;;
19609;SDS011;9952;47.122;-1.638;2024-01-25T00:25:40;12.47;;;5.67;;
19609;SDS011;9952;47.122;-1.638;2024-01-25T00:30:21;17.97;;;5.80;;
19609;SDS011;9952;47.122;-1.638;2024-01-25T00:35:02;12.20;;;4.13;;
19609;SDS011;9952;47.122;-1.638;2024-01-25T00:39:43;10.77;;;3.60;;
19609;SDS011;9952;47.122;-1.638;2024-01-25T00:44:24;10.63;;;3.77;;
19609;SDS011;9952;47.122;-1.638;2024-01-25T00:49:05;9.30;;;3.53;;
19609;SDS011;9952;47.122;-1.638;2024-01-25T00:53:45;10.00;;;2.73;;
19609;SDS011;9952;47.122;-1.638;2024-01-25T00:58:26;10.57;;;2.67;;
19609;SDS011;9952;47.122;-1.638;2024-01-25T01:03:07;10.20;;;1.73;;
19609;SDS011;9952;47.122;-1.638;2024-01-25T01:07:48;8.03;;;2.40;;
19609;SDS011;9952;47.122;-1.638;2024-01-25T01:12:30;6.40;;;2.10;;
19609;SDS011;9952;47.122;-1.638;2024-01-25T01:17:10;7.20;;;1.80;;
19609;SDS011;9952;47.122;-1.638;2024-01-25T01:21:51;5.60;;;1.20;;
19609;SDS011;9952;47.122;-1.638;2024-01-25T01:26:31;7.90;;;1.37;;
19609;SDS011;9952;47.122;-1.638;2024-01-25T01:31:12;3.23;;;1.27;;
19609;SDS011;9952;47.122;-1.638;2024-01-25T01:35:53;3.40;;;1.20;;
19609;SDS011;9952;47.122;-1.638;2024-01-25T01:40:33;4.30;;;1.20;;
19609;SDS011;9952;47.122;-1.638;2024-01-25T01:45:14;4.67;;;1.20;;
19609;SDS011;9952;47.122;-1.638;2024-01-25T01:49:55;4.10;;;0.90;;
19609;SDS011;9952;47.122;-1.638;2024-01-25T01:54:35;11.63;;;1.30;;
19609;SDS011;9952;47.122;-1.638;2024-01-25T01:59:17;2.20;;;0.70;;
19609;SDS011;9952;47.122;-1.638;2024-01-25T02:03:57;1.97;;;0.60;;
19609;SDS011;9952;47.122;-1.638;2024-01-25T02:08:38;6.73;;;1.40;;
19609;SDS011;9952;47.122;-1.638;2024-01-25T02:13:19;0.87;;;0.87;;
19609;SDS011;9952;47.122;-1.638;2024-01-25T02:18:00;2.30;;;0.80;;
19609;SDS011;9952;47.122;-1.638;2024-01-25T02:22:41;2.03;;;0.60;;
19609;SDS011;9952;47.122;-1.638;2024-01-25T02:27:22;3.80;;;1.03;;
19609;SDS011;9952;47.122;-1.638;2024-01-25T02:32:03;4.47;;;0.73;;
19609;SDS011;9952;47.122;-1.638;2024-01-25T02:36:44;2.93;;;1.37;;
19609;SDS011;9952;47.122;-1.638;2024-01-25T02:41:24;3.90;;;0.90;;
19609;SDS011;9952;47.122;-1.638;2024-01-25T02:46:05;2.00;;;0.90;;
19609;SDS011;9952;47.122;-1.638;2024-01-25T02:50:47;4.47;;;1.10;;
19609;SDS011;9952;47.122;-1.638;2024-01-25T02:55:27;2.83;;;1.07;;
19609;SDS011;9952;47.122;-1.638;2024-01-25T03:00:08;9.30;;;1.17;;
19609;SDS011;9952;47.122;-1.638;2024-01-25T03:04:49;3.60;;;0.90;;
19609;SDS011;9952;47.122;-1.638;2024-01-25T03:09:30;2.03;;;1.00;;
19609;SDS011;9952;47.122;-1.638;2024-01-25T03:14:10;8.97;;;1.30;;
19609;SDS011;9952;47.122;-1.638;2024-01-25T03:18:52;5.80;;;1.20;;
19609;SDS011;9952;47.122;-1.638;2024-01-25T03:23:32;5.97;;;1.00;;
19609;SDS011;9952;47.122;-1.638;2024-01-25T03:28:13;4.20;;;1.10;;
19609;SDS011;9952;47.122;-1.638;2024-01-25T03:32:56;6.53;;;1.53;;
19609;SDS011;9952;47.122;-1.638;2024-01-25T03:37:37;4.70;;;1.00;;
19609;SDS011;9952;47.122;-1.638;2024-01-25T03:42:17;4.97;;;1.60;;
19609;SDS011;9952;47.122;-1.638;2024-01-25T03:46:58;9.83;;;1.30;;
19609;SDS011;9952;47.122;-1.638;2024-01-25T03:51:39;8.20;;;1.50;;
19609;SDS011;9952;47.122;-1.638;2024-01-25T03:56:19;3.53;;;1.30;;
19609;SDS011;9952;47.122;-1.638;2024-01-25T04:01:00;4.07;;;1.30;;
19609;SDS011;9952;47.122;-1.638;2024-01-25T04:05:41;7.00;;;1.20;;
19609;SDS011;9952;47.122;-1.638;2024-01-25T04:10:22;5.87;;;1.17;;
19609;SDS011;9952;47.122;-1.638;2024-01-25T04:15:02;1.47;;;1.03;;
19609;SDS011;9952;47.122;-1.638;2024-01-25T04:19:43;7.53;;;1.53;;
19609;SDS011;9952;47.122;-1.638;2024-01-25T04:24:24;6.93;;;1.47;;
19609;SDS011;9952;47.122;-1.638;2024-01-25T04:29:04;4.03;;;1.40;;
19609;SDS011;9952;47.122;-1.638;2024-01-25T04:33:47;5.10;;;1.03;;
19609;SDS011;9952;47.122;-1.638;2024-01-25T04:38:27;6.17;;;1.60;;
19609;SDS011;9952;47.122;-1.638;2024-01-25T04:43:08;13.40;;;5.17;;
19609;SDS011;9952;47.122;-1.638;2024-01-25T04:47:49;10.17;;;3.00;;
19609;SDS011;9952;47.122;-1.638;2024-01-25T04:52:29;7.97;;;2.60;;
19609;SDS011;9952;47.122;-1.638;2024-01-25T04:57:10;5.77;;;1.60;;
19609;SDS011;9952;47.122;-1.638;2024-01-25T05:01:50;4.00;;;1.30;;
19609;SDS011;9952;47.122;-1.638;2024-01-25T05:06:33;4.27;;;1.47;;
19609;SDS011;9952;47.122;-1.638;2024-01-25T05:11:14;4.50;;;1.20;;
19609;SDS011;9952;47.122;-1.638;2024-01-25T05:15:55;6.80;;;1.20;;
19609;SDS011;9952;47.122;-1.638;2024-01-25T05:20:35;4.60;;;1.33;;
19609;SDS011;9952;47.122;-1.638;2024-01-25T05:25:17;5.83;;;1.53;;
19609;SDS011;9952;47.122;-1.638;2024-01-25T05:29:58;7.50;;;1.60;;
19609;SDS011;9952;47.122;-1.638;2024-01-25T05:34:39;9.83;;;1.40;;
19609;SDS011;9952;47.122;-1.638;2024-01-25T05:39:19;3.93;;;1.40;;
19609;SDS011;9952;47.122;-1.638;2024-01-25T05:44:00;3.80;;;1.73;;
19609;SDS011;9952;47.122;-1.638;2024-01-25T05:48:41;7.07;;;2.00;;
19609;SDS011;9952;47.122;-1.638;2024-01-25T05:53:21;5.50;;;2.23;;
19609;SDS011;9952;47.122;-1.638;2024-01-25T05:58:02;6.40;;;1.50;;
19609;SDS011;9952;47.122;-1.638;2024-01-25T06:02:43;6.53;;;1.77;;
19609;SDS011;9952;47.122;-1.638;2024-01-25T06:07:24;5.03;;;1.20;;
19609;SDS011;9952;47.122;-1.638;2024-01-25T06:12:05;7.30;;;1.63;;
19609;SDS011;9952;47.122;-1.638;2024-01-25T06:16:46;8.53;;;2.30;;
19609;SDS011;9952;47.122;-1.638;2024-01-25T06:21:26;13.43;;;2.10;;
19609;SDS011;9952;47.122;-1.638;2024-01-25T06:26:07;6.17;;;2.20;;
19609;SDS011;9952;47.122;-1.638;2024-01-25T06:30:48;6.33;;;2.00;;
19609;SDS011;9952;47.122;-1.638;2024-01-25T06:35:29;9.57;;;2.20;;
19609;SDS011;9952;47.122;-1.638;2024-01-25T06:40:09;5.37;;;1.90;;
19609;SDS011;9952;47.122;-1.638;2024-01-25T06:44:50;8.60;;;2.03;;
19609;SDS011;9952;47.122;-1.638;2024-01-25T06:49:31;5.40;;;1.87;;
19609;SDS011;9952;47.122;-1.638;2024-01-25T06:54:12;10.17;;;2.30;;
19609;SDS011;9952;47.122;-1.638;2024-01-25T06:58:52;6.53;;;1.97;;
19609;SDS011;9952;47.122;-1.638;2024-01-25T07:03:33;4.57;;;1.70;;
19609;SDS011;9952;47.122;-1.638;2024-01-25T07:08:14;4.10;;;1.60;;
19609;SDS011;9952;47.122;-1.638;2024-01-25T07:12:55;7.13;;;1.87;;
19609;SDS011;9952;47.122;-1.638;2024-01-25T07:17:36;4.17;;;1.70;;
19609;SDS011;9952;47.122;-1.638;2024-01-25T07:22:17;5.60;;;1.90;;
19609;SDS011;9952;47.122;-1.638;2024-01-25T07:26:58;7.00;;;1.90;;
19609;SDS011;9952;47.122;-1.638;2024-01-25T07:31:39;6.50;;;1.90;;
19609;SDS011;9952;47.122;-1.638;2024-01-25T07:36:20;6.23;;;2.20;;
19609;SDS011;9952;47.122;-1.638;2024-01-25T07:41:01;7.87;;;1.97;;
19609;SDS011;9952;47.122;-1.638;2024-01-25T07:45:41;9.33;;;2.13;;
19609;SDS011;9952;47.122;-1.638;2024-01-25T07:50:22;7.73;;;1.80;;
19609;SDS011;9952;47.122;-1.638;2024-01-25T07:55:03;4.80;;;2.17;;
19609;SDS011;9952;47.122;-1.638;2024-01-25T07:59:44;7.03;;;2.40;;
19609;SDS011;9952;47.122;-1.638;2024-01-25T08:04:24;6.17;;;2.50;;
19609;SDS011;9952;47.122;-1.638;2024-01-25T08:09:05;5.23;;;2.93;;
19609;SDS011;9952;47.122;-1.638;2024-01-25T08:13:46;8.83;;;2.37;;
19609;SDS011;9952;47.122;-1.638;2024-01-25T08:18:27;10.13;;;3.20;;
19609;SDS011;9952;47.122;-1.638;2024-01-25T08:23:09;8.90;;;2.53;;
19609;SDS011;9952;47.122;-1.638;2024-01-25T08:27:50;11.90;;;3.00;;
19609;SDS011;9952;47.122;-1.638;2024-01-25T08:32:31;7.83;;;2.80;;
19609;SDS011;9952;47.122;-1.638;2024-01-25T08:37:11;8.73;;;2.97;;
19609;SDS011;9952;47.122;-1.638;2024-01-25T08:41:52;6.73;;;2.33;;
19609;SDS011;9952;47.122;-1.638;2024-01-25T08:46:33;9.63;;;3.60;;
19609;SDS011;9952;47.122;-1.638;2024-01-25T08:51:14;8.67;;;2.67;;
19609;SDS011;9952;47.122;-1.638;2024-01-25T08:55:55;6.80;;;2.50;;
19609;SDS011;9952;47.122;-1.638;2024-01-25T09:00:36;9.30;;;2.60;;
19609;SDS011;9952;47.122;-1.638;2024-01-25T09:05:16;8.80;;;2.80;;
19609;SDS011;9952;47.122;-1.638;2024-01-25T09:09:58;5.50;;;2.60;;
19609;SDS011;9952;47.122;-1.638;2024-01-25T09:14:38;9.17;;;2.97;;
19609;SDS011;9952;47.122;-1.638;2024-01-25T09:19:19;9.20;;;3.83;;
19609;SDS011;9952;47.122;-1.638;2024-01-25T09:24:00;9.63;;;3.53;;
19609;SDS011;9952;47.122;-1.638;2024-01-25T09:28:40;7.10;;;3.50;;
19609;SDS011;9952;47.122;-1.638;2024-01-25T09:33:21;8.00;;;4.00;;
19609;SDS011;9952;47.122;-1.638;2024-01-25T09:38:02;9.87;;;3.87;;
19609;SDS011;9952;47.122;-1.638;2024-01-25T09:42:42;5.80;;;3.30;;
19609;SDS011;9952;47.122;-1.638;2024-01-25T09:47:23;7.70;;;3.33;;
19609;SDS011;9952;47.122;-1.638;2024-01-25T09:52:04;7.20;;;2.70;;
19609;SDS011;9952;47.122;-1.638;2024-01-25T09:56:45;6.37;;;2.97;;
19609;SDS011;9952;47.122;-1.638;2024-01-25T10:01:31;4.57;;;2.23;;
19609;SDS011;9952;47.122;-1.638;2024-01-25T10:06:12;3.60;;;2.70;;
19609;SDS011;9952;47.122;-1.638;2024-01-25T10:10:53;6.70;;;2.50;;
19609;SDS011;9952;47.122;-1.638;2024-01-25T10:15:34;2.97;;;2.00;;
19609;SDS011;9952;47.122;-1.638;2024-01-25T10:20:14;2.07;;;1.87;;
19609;SDS011;9952;47.122;-1.638;2024-01-25T10:24:56;2.03;;;1.50;;
19609;SDS011;9952;47.122;-1.638;2024-01-25T10:29:36;1.73;;;1.57;;
19609;SDS011;9952;47.122;-1.638;2024-01-25T10:34:17;3.70;;;2.07;;
19609;SDS011;9952;47.122;-1.638;2024-01-25T10:38:59;2.57;;;1.90;;
19609;SDS011;9952;47.122;-1.638;2024-01-25T10:43:44;4.53;;;1.93;;
19609;SDS011;9952;47.122;-1.638;2024-01-25T10:48:25;2.97;;;2.30;;
19609;SDS011;9952;47.122;-1.638;2024-01-25T10:53:07;5.07;;;2.60;;
19609;SDS011;9952;47.122;-1.638;2024-01-25T10:57:49;4.17;;;2.90;;
19609;SDS011;9952;47.122;-1.638;2024-01-25T11:02:34;5.57;;;3.40;;
19609;SDS011;9952;47.122;-1.638;2024-01-25T11:07:15;7.53;;;2.80;;
19609;SDS011;9952;47.122;-1.638;2024-01-25T11:11:56;6.13;;;3.17;;
19609;SDS011;9952;47.122;-1.638;2024-01-25T11:16:39;4.27;;;2.60;;
19609;SDS011;9952;47.122;-1.638;2024-01-25T11:21:28;4.50;;;2.70;;
19609;SDS011;9952;47.122;-1.638;2024-01-25T11:26:09;3.87;;;2.63;;
19609;SDS011;9952;47.122;-1.638;2024-01-25T11:30:50;9.57;;;3.57;;
19609;SDS011;9952;47.122;-1.638;2024-01-25T11:35:31;6.93;;;2.63;;
19609;SDS011;9952;47.122;-1.638;2024-01-25T11:40:12;5.93;;;2.47;;
19609;SDS011;9952;47.122;-1.638;2024-01-25T11:44:53;6.87;;;2.47;;
19609;SDS011;9952;47.122;-1.638;2024-01-25T11:49:34;6.50;;;2.20;;
19609;SDS011;9952;47.122;-1.638;2024-01-25T11:54:15;8.43;;;2.57;;
19609;SDS011;9952;47.122;-1.638;2024-01-25T11:58:56;9.27;;;2.73;;
19609;SDS011;9952;47.122;-1.638;2024-01-25T12:03:37;7.20;;;3.10;;
19609;SDS011;9952;47.122;-1.638;2024-01-25T12:08:19;8.30;;;3.03;;
19609;SDS011;9952;47.122;-1.638;2024-01-25T12:12:59;12.57;;;3.27;;
19609;SDS011;9952;47.122;-1.638;2024-01-25T12:17:40;10.33;;;2.93;;
19609;SDS011;9952;47.122;-1.638;2024-01-25T12:22:21;10.80;;;3.37;;
19609;SDS011;9952;47.122;-1.638;2024-01-25T12:27:02;11.50;;;3.40;;
19609;SDS011;9952;47.122;-1.638;2024-01-25T12:31:43;13.17;;;3.73;;
19609;SDS011;9952;47.122;-1.638;2024-01-25T12:36:23;11.27;;;3.87;;
19609;SDS011;9952;47.122;-1.638;2024-01-25T12:41:04;11.07;;;3.40;;
19609;SDS011;9952;47.122;-1.638;2024-01-25T12:45:45;14.43;;;4.17;;
19609;SDS011;9952;47.122;-1.638;2024-01-25T12:50:25;17.13;;;4.60;;
19609;SDS011;9952;47.122;-1.638;2024-01-25T12:55:06;12.13;;;4.20;;
19609;SDS011;9952;47.122;-1.638;2024-01-25T12:59:47;12.87;;;3.87;;
19609;SDS011;9952;47.122;-1.638;2024-01-25T13:04:29;19.23;;;4.10;;
19609;SDS011;9952;47.122;-1.638;2024-01-25T13:09:10;12.40;;;4.53;;
19609;SDS011;9952;47.122;-1.638;2024-01-25T13:13:50;15.17;;;4.23;;
19609;SDS011;9952;47.122;-1.638;2024-01-25T13:18:31;14.73;;;4.07;;
19609;SDS011;9952;47.122;-1.638;2024-01-25T13:23:12;14.90;;;4.53;;
19609;SDS011;9952;47.122;-1.638;2024-01-25T13:27:52;15.47;;;4.70;;
19609;SDS011;9952;47.122;-1.638;2024-01-25T13:32:33;12.50;;;3.90;;
19609;SDS011;9952;47.122;-1.638;2024-01-25T13:37:14;16.50;;;5.33;;
19609;SDS011;9952;47.122;-1.638;2024-01-25T13:41:54;16.37;;;5.27;;
19609;SDS011;9952;47.122;-1.638;2024-01-25T13:46:36;15.50;;;4.43;;
19609;SDS011;9952;47.122;-1.638;2024-01-25T13:51:17;17.20;;;4.53;;
19609;SDS011;9952;47.122;-1.638;2024-01-25T13:55:57;12.50;;;4.17;;
19609;SDS011;9952;47.122;-1.638;2024-01-25T14:00:39;14.80;;;4.80;;
19609;SDS011;9952;47.122;-1.638;2024-01-25T14:05:19;16.57;;;4.93;;
19609;SDS011;9952;47.122;-1.638;2024-01-25T14:10:00;13.23;;;5.30;;
19609;SDS011;9952;47.122;-1.638;2024-01-25T14:14:41;9.60;;;4.00;;
19609;SDS011;9952;47.122;-1.638;2024-01-25T14:19:21;11.00;;;4.57;;
19609;SDS011;9952;47.122;-1.638;2024-01-25T14:24:02;13.50;;;3.97;;
19609;SDS011;9952;47.122;-1.638;2024-01-25T14:28:43;11.13;;;4.37;;
19609;SDS011;9952;47.122;-1.638;2024-01-25T14:33:24;11.67;;;4.53;;
19609;SDS011;9952;47.122;-1.638;2024-01-25T14:38:04;10.60;;;3.83;;
19609;SDS011;9952;47.122;-1.638;2024-01-25T14:42:45;15.73;;;4.90;;
19609;SDS011;9952;47.122;-1.638;2024-01-25T14:47:26;15.00;;;5.60;;
19609;SDS011;9952;47.122;-1.638;2024-01-25T14:52:06;9.70;;;4.57;;
19609;SDS011;9952;47.122;-1.638;2024-01-25T14:56:47;18.07;;;4.70;;
19609;SDS011;9952;47.122;-1.638;2024-01-25T15:01:30;12.37;;;4.87;;
19609;SDS011;9952;47.122;-1.638;2024-01-25T15:06:11;17.13;;;5.17;;
19609;SDS011;9952;47.122;-1.638;2024-01-25T15:10:52;13.10;;;4.30;;
19609;SDS011;9952;47.122;-1.638;2024-01-25T15:15:33;19.03;;;5.50;;
19609;SDS011;9952;47.122;-1.638;2024-01-25T15:20:14;26.67;;;6.80;;
19609;SDS011;9952;47.122;-1.638;2024-01-25T15:24:55;18.40;;;5.47;;
19609;SDS011;9952;47.122;-1.638;2024-01-25T15:29:38;17.60;;;5.30;;
19609;SDS011;9952;47.122;-1.638;2024-01-25T15:34:19;11.73;;;4.93;;
19609;SDS011;9952;47.122;-1.638;2024-01-25T15:39:00;22.17;;;5.43;;
19609;SDS011;9952;47.122;-1.638;2024-01-25T15:43:43;17.07;;;6.20;;
19609;SDS011;9952;47.122;-1.638;2024-01-25T15:48:24;14.33;;;5.40;;
19609;SDS011;9952;47.122;-1.638;2024-01-25T15:53:04;15.43;;;5.60;;
19609;SDS011;9952;47.122;-1.638;2024-01-25T15:57:45;15.40;;;5.03;;
19609;SDS011;9952;47.122;-1.638;2024-01-25T16:02:25;18.63;;;5.00;;
19609;SDS011;9952;47.122;-1.638;2024-01-25T16:07:06;13.30;;;5.03;;
19609;SDS011;9952;47.122;-1.638;2024-01-25T16:11:47;15.20;;;5.40;;
19609;SDS011;9952;47.122;-1.638;2024-01-25T16:16:27;13.97;;;5.17;;
19609;SDS011;9952;47.122;-1.638;2024-01-25T16:21:09;18.80;;;5.30;;
19609;SDS011;9952;47.122;-1.638;2024-01-25T16:25:50;11.90;;;4.93;;
19609;SDS011;9952;47.122;-1.638;2024-01-25T16:30:30;14.10;;;5.37;;
19609;SDS011;9952;47.122;-1.638;2024-01-25T16:35:11;14.47;;;4.67;;
19609;SDS011;9952;47.122;-1.638;2024-01-25T16:39:52;16.97;;;5.60;;
19609;SDS011;9952;47.122;-1.638;2024-01-25T16:44:32;14.13;;;5.93;;
19609;SDS011;9952;47.122;-1.638;2024-01-25T16:49:13;11.60;;;5.30;;
19609;SDS011;9952;47.122;-1.638;2024-01-25T16:53:54;21.13;;;6.30;;
19609;SDS011;9952;47.122;-1.638;2024-01-25T16:58:34;20.03;;;7.00;;
19609;SDS011;9952;47.122;-1.638;2024-01-25T17:03:15;20.53;;;9.67;;
19609;SDS011;9952;47.122;-1.638;2024-01-25T17:07:56;22.80;;;8.37;;
19609;SDS011;9952;47.122;-1.638;2024-01-25T17:12:36;16.70;;;8.83;;
19609;SDS011;9952;47.122;-1.638;2024-01-25T17:17:17;17.87;;;6.83;;
19609;SDS011;9952;47.122;-1.638;2024-01-25T17:21:58;20.23;;;8.57;;
19609;SDS011;9952;47.122;-1.638;2024-01-25T17:26:38;31.90;;;14.37;;
19609;SDS011;9952;47.122;-1.638;2024-01-25T17:31:19;19.00;;;8.87;;
19609;SDS011;9952;47.122;-1.638;2024-01-25T17:36:00;24.43;;;7.47;;
19609;SDS011;9952;47.122;-1.638;2024-01-25T17:40:41;21.73;;;9.13;;
19609;SDS011;9952;47.122;-1.638;2024-01-25T17:45:23;17.70;;;7.50;;
19609;SDS011;9952;47.122;-1.638;2024-01-25T17:50:03;18.80;;;8.17;;
19609;SDS011;9952;47.122;-1.638;2024-01-25T17:54:44;20.13;;;9.17;;
19609;SDS011;9952;47.122;-1.638;2024-01-25T17:59:25;22.70;;;8.30;;
19609;SDS011;9952;47.122;-1.638;2024-01-25T18:04:08;25.83;;;9.73;;
19609;SDS011;9952;47.122;-1.638;2024-01-25T18:08:49;25.50;;;9.67;;
19609;SDS011;9952;47.122;-1.638;2024-01-25T18:13:31;21.03;;;8.17;;
19609;SDS011;9952;47.122;-1.638;2024-01-25T18:18:12;14.17;;;7.77;;
19609;SDS011;9952;47.122;-1.638;2024-01-25T18:22:52;20.60;;;9.37;;
19609;SDS011;9952;47.122;-1.638;2024-01-25T18:27:33;19.13;;;9.13;;
19609;SDS011;9952;47.122;-1.638;2024-01-25T18:32:14;20.77;;;8.27;;
19609;SDS011;9952;47.122;-1.638;2024-01-25T18:36:54;18.53;;;8.40;;
19609;SDS011;9952;47.122;-1.638;2024-01-25T18:41:35;26.43;;;8.40;;
19609;SDS011;9952;47.122;-1.638;2024-01-25T18:46:16;23.23;;;8.27;;
19609;SDS011;9952;47.122;-1.638;2024-01-25T18:50:56;22.90;;;8.47;;
19609;SDS011;9952;47.122;-1.638;2024-01-25T18:55:37;25.93;;;9.73;;
19609;SDS011;9952;47.122;-1.638;2024-01-25T19:00:18;23.60;;;8.13;;
19609;SDS011;9952;47.122;-1.638;2024-01-25T19:05:00;20.50;;;8.00;;
19609;SDS011;9952;47.122;-1.638;2024-01-25T19:09:40;22.57;;;8.23;;
19609;SDS011;9952;47.122;-1.638;2024-01-25T19:14:22;21.83;;;9.23;;
19609;SDS011;9952;47.122;-1.638;2024-01-25T19:19:02;21.33;;;9.27;;
19609;SDS011;9952;47.122;-1.638;2024-01-25T19:23:44;18.83;;;8.17;;
19609;SDS011;9952;47.122;-1.638;2024-01-25T19:28:26;21.60;;;8.70;;
19609;SDS011;9952;47.122;-1.638;2024-01-25T19:33:06;20.47;;;8.63;;
19609;SDS011;9952;47.122;-1.638;2024-01-25T19:37:47;18.00;;;8.20;;
19609;SDS011;9952;47.122;-1.638;2024-01-25T19:42:28;25.30;;;8.03;;
19609;SDS011;9952;47.122;-1.638;2024-01-25T19:47:09;21.77;;;7.87;;
19609;SDS011;9952;47.122;-1.638;2024-01-25T19:51:49;22.73;;;7.50;;
19609;SDS011;9952;47.122;-1.638;2024-01-25T19:56:30;24.63;;;7.80;;
19609;SDS011;9952;47.122;-1.638;2024-01-25T20:01:11;28.40;;;6.93;;
19609;SDS011;9952;47.122;-1.638;2024-01-25T20:05:54;25.40;;;7.13;;
19609;SDS011;9952;47.122;-1.638;2024-01-25T20:10:35;20.93;;;7.43;;
19609;SDS011;9952;47.122;-1.638;2024-01-25T20:15:16;27.80;;;9.03;;
19609;SDS011;9952;47.122;-1.638;2024-01-25T20:19:56;20.20;;;7.70;;
19609;SDS011;9952;47.122;-1.638;2024-01-25T20:24:37;24.87;;;6.97;;
19609;SDS011;9952;47.122;-1.638;2024-01-25T20:29:18;27.07;;;7.27;;
19609;SDS011;9952;47.122;-1.638;2024-01-25T20:33:59;28.13;;;9.07;;
19609;SDS011;9952;47.122;-1.638;2024-01-25T20:38:39;21.57;;;8.10;;
19609;SDS011;9952;47.122;-1.638;2024-01-25T20:43:20;22.60;;;8.13;;
19609;SDS011;9952;47.122;-1.638;2024-01-25T20:48:01;23.20;;;7.93;;
19609;SDS011;9952;47.122;-1.638;2024-01-25T20:52:42;24.43;;;7.97;;
19609;SDS011;9952;47.122;-1.638;2024-01-25T20:57:22;20.43;;;7.67;;
19609;SDS011;9952;47.122;-1.638;2024-01-25T21:02:03;29.03;;;8.37;;
19609;SDS011;9952;47.122;-1.638;2024-01-25T21:06:44;23.23;;;7.50;;
19609;SDS011;9952;47.122;-1.638;2024-01-25T21:11:25;29.50;;;8.40;;
19609;SDS011;9952;47.122;-1.638;2024-01-25T21:16:06;27.07;;;8.40;;
19609;SDS011;9952;47.122;-1.638;2024-01-25T21:20:47;33.83;;;8.13;;
19609;SDS011;9952;47.122;-1.638;2024-01-25T21:25:27;24.97;;;8.43;;
19609;SDS011;9952;47.122;-1.638;2024-01-25T21:30:08;22.77;;;6.60;;
19609;SDS011;9952;47.122;-1.638;2024-01-25T21:34:49;20.07;;;6.73;;
19609;SDS011;9952;47.122;-1.638;2024-01-25T21:39:29;25.83;;;6.10;;
19609;SDS011;9952;47.122;-1.638;2024-01-25T21:44:10;21.37;;;6.33;;
19609;SDS011;9952;47.122;-1.638;2024-01-25T21:48:52;22.80;;;6.20;;
19609;SDS011;9952;47.122;-1.638;2024-01-25T21:53:33;20.73;;;5.00;;
19609;SDS011;9952;47.122;-1.638;2024-01-25T21:58:14;27.33;;;6.47;;
19609;SDS011;9952;47.122;-1.638;2024-01-25T22:02:54;23.77;;;5.73;;
19609;SDS011;9952;47.122;-1.638;2024-01-25T22:07:35;23.70;;;5.30;;
19609;SDS011;9952;47.122;-1.638;2024-01-25T22:12:16;19.77;;;5.50;;
19609;SDS011;9952;47.122;-1.638;2024-01-25T22:16:56;29.50;;;6.90;;
19609;SDS011;9952;47.122;-1.638;2024-01-25T22:21:37;22.37;;;6.37;;
19609;SDS011;9952;47.122;-1.638;2024-01-25T22:26:18;24.97;;;5.43;;
19609;SDS011;9952;47.122;-1.638;2024-01-25T22:30:58;19.77;;;5.63;;
19609;SDS011;9952;47.122;-1.638;2024-01-25T22:35:39;20.27;;;5.20;;
19609;SDS011;9952;47.122;-1.638;2024-01-25T22:40:19;19.57;;;5.80;;
19609;SDS011;9952;47.122;-1.638;2024-01-25T22:45:00;17.20;;;5.13;;
19609;SDS011;9952;47.122;-1.638;2024-01-25T22:49:41;21.30;;;5.53;;
19609;SDS011;9952;47.122;-1.638;2024-01-25T22:54:21;14.90;;;5.17;;
19609;SDS011;9952;47.122;-1.638;2024-01-25T22:59:02;19.63;;;4.87;;
19609;SDS011;9952;47.122;-1.638;2024-01-25T23:03:43;26.43;;;5.03;;
19609;SDS011;9952;47.122;-1.638;2024-01-25T23:08:23;26.37;;;5.50;;
19609;SDS011;9952;47.122;-1.638;2024-01-25T23:13:04;20.63;;;5.13;;
19609;SDS011;9952;47.122;-1.638;2024-01-25T23:17:45;16.43;;;4.90;;
19609;SDS011;9952;47.122;-1.638;2024-01-25T23:22:26;19.53;;;5.50;;
19609;SDS011;9952;47.122;-1.638;2024-01-25T23:27:07;23.20;;;6.00;;
19609;SDS011;9952;47.122;-1.638;2024-01-25T23:31:48;18.23;;;5.07;;
19609;SDS011;9952;47.122;-1.638;2024-01-25T23:36:31;26.27;;;6.00;;
19609;SDS011;9952;47.122;-1.638;2024-01-25T23:41:13;26.53;;;7.23;;
19609;SDS011;9952;47.122;-1.638;2024-01-25T23:45:54;33.57;;;7.13;;
19609;SDS011;9952;47.122;-1.638;2024-01-25T23:50:35;22.73;;;7.00;;
19609;SDS011;9952;47.122;-1.638;2024-01-25T23:55:15;31.67;;;6.40;;
19609;SDS011;9952;47.122;-1.638;2024-01-25T23:59:56;27.07;;;6.07;;
